createdAt,value
2023-02-02T00:01:30.420Z,3.80
2023-02-02T00:04:02.205Z,4.10
2023-02-02T00:06:32.273Z,4.57
2023-02-02T00:09:03.618Z,3.50
2023-02-02T00:11:31.758Z,4.00
2023-02-02T00:14:00.933Z,3.72
2023-02-02T00:16:40.660Z,3.53
2023-02-02T00:19:11.204Z,4.00
2023-02-02T00:21:41.875Z,3.85
2023-02-02T00:24:14.344Z,3.65
2023-02-02T00:26:44.255Z,3.85
2023-02-02T00:29:22.498Z,4.15
2023-02-02T00:31:51.423Z,4.60
2023-02-02T00:34:20.544Z,3.80
2023-02-02T00:36:49.678Z,4.20
2023-02-02T00:39:27.434Z,3.50
2023-02-02T00:41:56.695Z,3.75
2023-02-02T00:44:42.306Z,3.88
2023-02-02T00:47:10.616Z,3.80
2023-02-02T00:49:40.055Z,3.67
2023-02-02T00:52:08.189Z,3.72
2023-02-02T00:54:38.051Z,3.65
2023-02-02T00:57:06.237Z,3.47
2023-02-02T00:59:34.552Z,3.75
2023-02-02T01:02:04.255Z,3.38
2023-02-02T01:04:32.503Z,3.83
2023-02-02T01:07:01.036Z,3.65
2023-02-02T01:09:30.790Z,3.30
2023-02-02T01:12:02.844Z,3.25
2023-02-02T01:14:38.129Z,3.25
2023-02-02T01:17:09.416Z,3.47
2023-02-02T01:19:37.456Z,3.03
2023-02-02T01:22:06.548Z,3.35
2023-02-02T01:24:36.331Z,3.55
2023-02-02T01:27:06.105Z,2.92
2023-02-02T01:29:34.477Z,3.42
2023-02-02T01:32:02.535Z,3.50
2023-02-02T01:34:31.078Z,3.47
2023-02-02T01:36:59.212Z,3.35
2023-02-02T01:39:27.360Z,3.28
2023-02-02T01:41:55.566Z,3.15
2023-02-02T01:45:09.735Z,3.50
2023-02-02T01:47:42.329Z,3.58
2023-02-02T01:50:15.896Z,3.08
2023-02-02T01:52:48.070Z,3.08
2023-02-02T01:55:19.979Z,2.88
2023-02-02T01:57:54.180Z,3.40
2023-02-02T02:00:26.618Z,3.30
2023-02-02T02:03:04.889Z,3.38
2023-02-02T02:05:37.748Z,2.95
2023-02-02T02:08:13.156Z,3.08
2023-02-02T02:10:41.594Z,3.25
2023-02-02T02:13:11.027Z,3.15
2023-02-02T02:16:03.983Z,2.75
2023-02-02T02:18:41.849Z,3.90
2023-02-02T02:21:56.033Z,2.83
2023-02-02T02:25:14.601Z,3.70
2023-02-02T02:28:21.634Z,4.18
2023-02-02T02:31:10.223Z,3.25
2023-02-02T02:33:47.126Z,3.15
2023-02-02T02:36:21.662Z,3.28
2023-02-02T02:38:57.351Z,2.80
2023-02-02T02:41:38.815Z,2.90
2023-02-02T02:44:17.036Z,3.40
2023-02-02T02:46:48.440Z,3.33
2023-02-02T02:49:20.199Z,2.88
2023-02-02T02:51:49.970Z,3.50
2023-02-02T02:54:22.495Z,3.72
2023-02-02T02:57:08.210Z,3.05
2023-02-02T02:59:50.041Z,3.42
2023-02-02T03:02:32.089Z,3.00
2023-02-02T03:05:10.779Z,3.38
2023-02-02T03:07:43.759Z,2.80
2023-02-02T03:10:15.004Z,2.85
2023-02-02T03:12:47.668Z,2.72
2023-02-02T03:15:16.221Z,3.10
2023-02-02T03:17:45.943Z,3.10
2023-02-02T03:20:16.212Z,3.03
2023-02-02T03:22:45.532Z,3.70
2023-02-02T03:25:13.825Z,3.47
2023-02-02T03:27:41.948Z,3.40
2023-02-02T03:30:15.084Z,2.85
2023-02-02T03:32:43.404Z,3.22
2023-02-02T03:35:11.629Z,3.10
2023-02-02T03:37:59.105Z,2.90
2023-02-02T03:40:27.721Z,2.53
2023-02-02T03:42:56.514Z,3.30
2023-02-02T03:45:24.918Z,3.25
2023-02-02T03:47:53.099Z,3.08
2023-02-02T03:50:21.362Z,3.30
2023-02-02T03:52:51.378Z,3.08
2023-02-02T03:55:21.156Z,3.17
2023-02-02T03:57:49.790Z,3.50
2023-02-02T04:00:21.439Z,3.50
2023-02-02T04:02:50.796Z,4.35
2023-02-02T04:05:20.198Z,3.15
2023-02-02T04:07:49.342Z,2.88
2023-02-02T04:10:20.131Z,3.58
2023-02-02T04:12:48.380Z,2.95
2023-02-02T04:15:16.877Z,3.28
2023-02-02T04:17:45.030Z,3.53
2023-02-02T04:20:13.848Z,2.95
2023-02-02T04:22:42.324Z,3.00
2023-02-02T04:25:10.658Z,3.10
2023-02-02T04:27:40.202Z,3.10
2023-02-02T04:30:10.323Z,3.30
2023-02-02T04:32:38.555Z,3.53
2023-02-02T04:35:07.365Z,3.17
2023-02-02T04:37:36.744Z,2.97
2023-02-02T04:40:09.665Z,3.00
2023-02-02T04:42:42.028Z,3.95
2023-02-02T04:45:10.580Z,3.22
2023-02-02T04:47:38.529Z,3.72
2023-02-02T04:50:07.659Z,3.28
2023-02-02T04:52:35.869Z,2.83
2023-02-02T04:55:05.683Z,3.00
2023-02-02T04:57:33.920Z,3.20
2023-02-02T05:00:03.847Z,3.28
2023-02-02T05:02:32.034Z,2.92
2023-02-02T05:05:00.184Z,3.03
2023-02-02T05:07:28.175Z,3.20
2023-02-02T05:09:56.027Z,4.07
2023-02-02T05:12:24.211Z,3.17
2023-02-02T05:14:54.698Z,4.00
2023-02-02T05:17:24.294Z,3.05
2023-02-02T05:19:52.512Z,2.88
2023-02-02T05:22:20.857Z,2.92
2023-02-02T05:24:49.039Z,2.80
2023-02-02T05:27:17.125Z,2.50
2023-02-02T05:29:45.678Z,3.13
2023-02-02T05:32:13.923Z,3.08
2023-02-02T05:34:44.709Z,3.22
2023-02-02T05:37:15.095Z,2.95
2023-02-02T05:39:43.485Z,2.70
2023-02-02T05:42:11.963Z,2.80
2023-02-02T05:44:40.327Z,3.00
2023-02-02T05:47:09.135Z,2.70
2023-02-02T05:49:37.440Z,3.50
2023-02-02T05:52:07.375Z,2.75
2023-02-02T05:54:35.682Z,2.97
2023-02-02T05:57:03.779Z,3.15
2023-02-02T05:59:32.054Z,2.80
2023-02-02T06:02:00.272Z,2.95
2023-02-02T06:04:28.607Z,3.25
2023-02-02T06:06:57.106Z,2.85
2023-02-02T06:09:26.923Z,3.15
2023-02-02T06:11:54.955Z,2.78
2023-02-02T06:14:23.245Z,3.33
2023-02-02T06:16:51.376Z,3.17
2023-02-02T06:19:19.471Z,3.30
2023-02-02T06:21:53.838Z,2.92
2023-02-02T06:24:30.182Z,3.00
2023-02-02T06:26:58.541Z,2.95
2023-02-02T06:29:30.097Z,3.53
2023-02-02T06:32:01.436Z,2.85
2023-02-02T06:34:29.631Z,3.22
2023-02-02T06:36:58.136Z,3.10
2023-02-02T06:39:27.788Z,3.60
2023-02-02T06:42:00.447Z,2.70
2023-02-02T06:44:32.168Z,3.20
2023-02-02T06:47:00.778Z,2.90
2023-02-02T06:49:29.314Z,2.90
2023-02-02T06:51:57.605Z,2.95
2023-02-02T06:54:27.602Z,3.33
2023-02-02T06:57:07.337Z,3.17
2023-02-02T06:59:38.589Z,3.22
2023-02-02T07:02:15.988Z,3.08
2023-02-02T07:04:44.603Z,2.97
2023-02-02T07:07:14.408Z,3.40
2023-02-02T07:09:44.067Z,3.10
2023-02-02T07:12:16.943Z,3.00
2023-02-02T07:14:51.550Z,2.90
2023-02-02T07:17:27.081Z,2.78
2023-02-02T07:19:55.752Z,2.95
2023-02-02T07:22:32.043Z,3.75
2023-02-02T07:25:02.131Z,3.50
2023-02-02T07:27:33.080Z,3.40
2023-02-02T07:30:01.561Z,3.22
2023-02-02T07:32:29.986Z,3.03
2023-02-02T07:34:58.370Z,3.40
2023-02-02T07:37:30.907Z,3.25
2023-02-02T07:40:00.766Z,3.05
2023-02-02T07:42:36.249Z,3.10
2023-02-02T07:45:36.346Z,3.35
2023-02-02T07:48:02.255Z,3.20
2023-02-02T07:50:32.201Z,3.50
2023-02-02T07:53:03.513Z,2.95
2023-02-02T07:55:33.977Z,3.58
2023-02-02T07:58:07.782Z,3.80
2023-02-02T08:00:37.464Z,3.13
2023-02-02T08:03:11.836Z,3.38
2023-02-02T08:05:43.674Z,3.08
2023-02-02T08:08:12.139Z,2.78
2023-02-02T08:10:40.351Z,2.78
2023-02-02T08:13:10.532Z,2.97
2023-02-02T08:15:50.044Z,3.60
2023-02-02T08:18:21.745Z,3.38
2023-02-02T08:20:54.060Z,2.70
2023-02-02T08:23:27.610Z,3.05
2023-02-02T08:26:06.232Z,3.47
2023-02-02T08:28:36.617Z,2.90
2023-02-02T08:31:15.332Z,2.67
2023-02-02T08:33:49.518Z,3.38
2023-02-02T08:36:50.827Z,3.20
2023-02-02T08:39:15.710Z,3.22
2023-02-02T08:41:49.640Z,3.00
2023-02-02T08:44:23.674Z,2.95
2023-02-02T08:46:58.996Z,3.03
2023-02-02T08:49:28.886Z,3.25
2023-02-02T08:52:02.176Z,3.20
2023-02-02T08:54:30.776Z,3.60
2023-02-02T08:57:04.189Z,3.15
2023-02-02T08:59:39.580Z,3.08
2023-02-02T09:02:09.679Z,3.50
2023-02-02T09:04:40.503Z,2.90
2023-02-02T09:07:08.897Z,3.25
2023-02-02T09:09:40.212Z,3.28
2023-02-02T09:12:08.741Z,3.58
2023-02-02T09:14:46.715Z,3.38
2023-02-02T09:17:15.159Z,3.20
2023-02-02T09:19:43.818Z,3.72
2023-02-02T09:22:14.172Z,3.88
2023-02-02T09:24:43.974Z,3.40
2023-02-02T09:27:12.441Z,3.53
2023-02-02T09:29:43.973Z,3.70
2023-02-02T09:32:12.667Z,3.58
2023-02-02T09:34:41.101Z,3.35
2023-02-02T09:37:10.026Z,4.03
2023-02-02T09:39:38.226Z,4.10
2023-02-02T09:42:23.535Z,3.90
2023-02-02T09:45:28.762Z,4.18
2023-02-02T09:48:02.466Z,3.65
2023-02-02T09:50:44.618Z,4.28
2023-02-02T09:53:21.159Z,4.10
2023-02-02T09:55:58.774Z,4.70
2023-02-02T09:58:29.928Z,3.88
2023-02-02T10:01:13.656Z,5.32
2023-02-02T10:03:47.160Z,4.20
2023-02-02T10:06:28.595Z,5.28
2023-02-02T10:09:03.127Z,4.57
2023-02-02T10:11:38.553Z,3.95
2023-02-02T10:14:14.444Z,4.40
2023-02-02T10:16:57.317Z,4.45
2023-02-02T10:19:30.852Z,4.28
2023-02-02T10:22:06.861Z,4.00
2023-02-02T10:24:37.309Z,4.40
2023-02-02T10:27:14.278Z,4.00
2023-02-02T10:29:51.807Z,4.10
2023-02-02T10:32:29.156Z,4.30
2023-02-02T10:35:18.261Z,4.00
2023-02-02T10:37:56.541Z,3.97
2023-02-02T10:40:37.588Z,4.10
2023-02-02T10:43:49.510Z,3.85
2023-02-02T10:46:22.347Z,3.78
2023-02-02T10:49:09.671Z,4.57
2023-02-02T10:51:38.274Z,4.20
2023-02-02T10:54:27.854Z,4.15
2023-02-02T10:57:03.727Z,3.92
2023-02-02T10:59:35.993Z,4.10
2023-02-02T11:02:20.650Z,4.00
2023-02-02T11:05:11.756Z,4.22
2023-02-02T11:07:40.110Z,3.90
2023-02-02T11:10:10.103Z,3.88
2023-02-02T11:12:42.361Z,3.50
2023-02-02T11:15:25.780Z,3.72
2023-02-02T11:17:55.732Z,3.70
2023-02-02T11:20:34.863Z,3.67
2023-02-02T11:23:09.283Z,3.58
2023-02-02T11:25:39.824Z,3.28
2023-02-02T11:28:31.206Z,4.35
2023-02-02T11:31:02.856Z,3.88
2023-02-02T11:33:33.815Z,3.65
2023-02-02T11:36:05.876Z,3.40
2023-02-02T11:38:34.399Z,3.30
2023-02-02T11:41:05.433Z,3.88
2023-02-02T11:43:41.191Z,3.63
2023-02-02T11:46:20.146Z,3.22
2023-02-02T11:48:52.669Z,3.05
2023-02-02T11:51:27.257Z,3.40
2023-02-02T11:54:05.031Z,4.13
2023-02-02T11:56:34.243Z,3.65
2023-02-02T11:59:04.085Z,4.05
2023-02-02T12:01:36.692Z,3.53
2023-02-02T12:04:27.830Z,3.05
2023-02-02T12:06:57.828Z,3.60
2023-02-02T12:09:27.910Z,3.33
2023-02-02T12:12:06.028Z,3.55
2023-02-02T12:14:44.944Z,4.05
2023-02-02T12:17:33.123Z,3.72
2023-02-02T12:20:23.658Z,4.28
2023-02-02T12:23:16.148Z,4.13
2023-02-02T12:26:02.507Z,3.47
2023-02-02T12:28:46.623Z,4.07
2023-02-02T12:31:28.867Z,3.40
2023-02-02T12:34:05.727Z,3.35
2023-02-02T12:36:48.803Z,3.38
2023-02-02T12:39:30.323Z,3.35
2023-02-02T12:42:19.036Z,3.85
2023-02-02T12:44:58.661Z,4.20
2023-02-02T12:47:30.613Z,3.78
2023-02-02T12:50:12.056Z,3.70
2023-02-02T12:52:58.763Z,3.60
2023-02-02T12:55:37.824Z,4.10
2023-02-02T12:58:17.691Z,4.05
2023-02-02T13:01:05.129Z,3.47
2023-02-02T13:03:45.198Z,3.88
2023-02-02T13:06:34.471Z,3.65
2023-02-02T13:09:08.072Z,3.70
2023-02-02T13:11:46.244Z,4.20
2023-02-02T13:14:21.192Z,3.80
2023-02-02T13:16:58.319Z,4.07
2023-02-02T13:19:33.539Z,3.90
2023-02-02T13:22:11.767Z,3.20
2023-02-02T13:24:46.533Z,3.55
2023-02-02T13:27:20.307Z,3.58
2023-02-02T13:29:59.107Z,3.40
2023-02-02T13:32:33.106Z,3.50
2023-02-02T13:35:05.813Z,3.70
2023-02-02T13:37:39.291Z,3.35
2023-02-02T13:40:19.767Z,3.78
2023-02-02T13:42:55.085Z,3.08
2023-02-02T13:45:41.272Z,3.53
2023-02-02T13:48:21.123Z,3.63
2023-02-02T13:51:05.790Z,3.45
2023-02-02T13:54:03.655Z,3.75
2023-02-02T13:56:41.728Z,3.95
2023-02-02T13:59:27.216Z,3.55
2023-02-02T14:01:59.306Z,3.40
2023-02-02T14:04:31.721Z,3.50
2023-02-02T14:07:07.661Z,4.00
2023-02-02T14:09:41.169Z,3.80
2023-02-02T14:12:14.302Z,3.25
2023-02-02T14:14:49.341Z,3.38
2023-02-02T14:17:54.826Z,3.72
2023-02-02T14:20:52.923Z,3.50
2023-02-02T14:24:03.204Z,3.00
2023-02-02T14:26:46.896Z,3.80
2023-02-02T14:29:39.599Z,3.50
2023-02-02T14:32:42.347Z,3.40
2023-02-02T14:35:47.920Z,3.92
2023-02-02T14:38:24.512Z,3.35
2023-02-02T14:40:57.991Z,3.22
2023-02-02T14:43:44.971Z,3.60
2023-02-02T14:46:35.704Z,3.20
2023-02-02T14:49:15.108Z,3.10
2023-02-02T14:51:55.349Z,3.28
2023-02-02T14:54:27.630Z,3.30
2023-02-02T14:57:01.801Z,3.22
2023-02-02T14:59:34.530Z,3.72
2023-02-02T15:02:15.242Z,3.70
2023-02-02T15:04:48.362Z,3.63
2023-02-02T15:07:53.899Z,3.72
2023-02-02T15:11:21.066Z,3.65
2023-02-02T15:13:58.328Z,3.78
2023-02-02T15:16:33.509Z,3.45
2023-02-02T15:19:17.936Z,4.15
2023-02-02T15:22:00.199Z,3.47
2023-02-02T15:24:35.274Z,3.63
2023-02-02T15:27:08.712Z,3.45
2023-02-02T15:29:46.667Z,3.17
2023-02-02T15:32:21.094Z,3.40
2023-02-02T15:34:54.600Z,3.55
2023-02-02T15:37:33.971Z,3.92
2023-02-02T15:40:04.482Z,3.42
2023-02-02T15:42:56.239Z,3.63
2023-02-02T15:45:48.430Z,3.85
2023-02-02T15:48:26.970Z,3.75
2023-02-02T15:50:56.263Z,3.40
2023-02-02T15:53:28.437Z,3.42
2023-02-02T15:55:57.988Z,3.60
2023-02-02T15:58:40.526Z,3.17
2023-02-02T16:01:18.846Z,3.13
2023-02-02T16:04:02.471Z,3.20
2023-02-02T16:06:34.691Z,3.22
2023-02-02T16:09:08.607Z,2.95
2023-02-02T16:11:47.151Z,3.40
2023-02-02T16:14:24.693Z,3.40
2023-02-02T16:16:52.894Z,3.42
2023-02-02T16:19:25.412Z,3.33
2023-02-02T16:21:59.504Z,3.38
2023-02-02T16:24:35.732Z,3.42
2023-02-02T16:27:10.292Z,3.80
2023-02-02T16:29:42.829Z,3.17
2023-02-02T16:32:27.987Z,3.35
2023-02-02T16:34:56.829Z,3.22
2023-02-02T16:38:05.169Z,3.20
2023-02-02T16:41:42.315Z,3.90
2023-02-02T16:44:40.347Z,3.70
2023-02-02T16:47:11.852Z,3.40
2023-02-02T16:49:40.280Z,3.33
2023-02-02T16:52:15.796Z,3.83
2023-02-02T16:54:54.385Z,4.40
2023-02-02T16:57:27.307Z,3.70
2023-02-02T17:00:04.430Z,4.10
2023-02-02T17:02:39.937Z,4.10
2023-02-02T17:05:29.175Z,3.70
2023-02-02T17:08:10.824Z,3.95
2023-02-02T17:10:42.204Z,4.10
2023-02-02T17:13:36.624Z,4.13
2023-02-02T17:16:06.798Z,3.78
2023-02-02T17:18:35.336Z,4.07
2023-02-02T17:21:07.748Z,3.80
2023-02-02T17:23:38.821Z,4.43
2023-02-02T17:26:08.918Z,4.28
2023-02-02T17:28:39.211Z,3.88
2023-02-02T17:31:11.664Z,4.50
2023-02-02T17:33:41.911Z,3.75
2023-02-02T17:36:13.274Z,3.92
2023-02-02T17:38:42.005Z,3.90
2023-02-02T17:41:18.045Z,3.90
2023-02-02T17:43:49.131Z,3.72
2023-02-02T17:46:33.148Z,3.85
2023-02-02T17:49:03.159Z,3.50
2023-02-02T17:51:39.055Z,4.38
2023-02-02T17:54:11.818Z,3.85
2023-02-02T17:56:42.962Z,3.67
2023-02-02T17:59:12.307Z,3.78
2023-02-02T18:01:48.028Z,3.80
2023-02-02T18:04:18.958Z,3.50
2023-02-02T18:06:53.222Z,3.83
2023-02-02T18:09:22.375Z,3.80
2023-02-02T18:11:50.737Z,3.70
2023-02-02T18:14:20.787Z,4.20
2023-02-02T18:16:52.875Z,3.90
2023-02-02T18:19:21.119Z,4.22
2023-02-02T18:21:51.013Z,4.40
2023-02-02T18:24:21.522Z,4.30
2023-02-02T18:26:51.612Z,4.45
2023-02-02T18:29:21.655Z,4.10
2023-02-02T18:31:51.673Z,4.00
2023-02-02T18:34:21.856Z,4.40
2023-02-02T18:36:54.019Z,4.05
2023-02-02T18:39:22.686Z,4.07
2023-02-02T18:41:55.374Z,3.72
2023-02-02T18:44:29.698Z,3.40
2023-02-02T18:47:04.949Z,3.65
2023-02-02T18:49:39.328Z,3.83
2023-02-02T18:52:08.228Z,4.00
2023-02-02T18:54:36.717Z,4.03
2023-02-02T18:57:42.963Z,3.58
2023-02-02T19:00:07.690Z,3.47
2023-02-02T19:02:39.387Z,3.42
2023-02-02T19:05:25.396Z,3.47
2023-02-02T19:07:58.340Z,3.72
2023-02-02T19:10:38.732Z,3.88
2023-02-02T19:13:20.541Z,3.60
2023-02-02T19:15:55.873Z,3.55
2023-02-02T19:18:26.639Z,3.63
2023-02-02T19:20:54.983Z,3.17
2023-02-02T19:23:26.434Z,3.58
2023-02-02T19:25:56.428Z,3.33
2023-02-02T19:28:34.010Z,3.90
2023-02-02T19:31:05.023Z,3.70
2023-02-02T19:33:50.551Z,3.63
2023-02-02T19:36:24.823Z,3.30
2023-02-02T19:38:56.864Z,3.30
2023-02-02T19:41:27.412Z,3.63
2023-02-02T19:44:02.226Z,3.63
2023-02-02T19:46:42.599Z,3.75
2023-02-02T19:49:21.920Z,3.58
2023-02-02T19:51:58.516Z,3.47
2023-02-02T19:54:38.260Z,3.42
2023-02-02T19:57:20.879Z,3.20
2023-02-02T19:59:53.616Z,3.30
2023-02-02T20:02:38.774Z,3.47
2023-02-02T20:05:22.994Z,3.35
2023-02-02T20:08:00.539Z,3.38
2023-02-02T20:10:35.737Z,3.35
2023-02-02T20:13:20.072Z,3.35
2023-02-02T20:16:03.608Z,3.40
2023-02-02T20:18:42.360Z,3.08
2023-02-02T20:21:27.602Z,3.35
2023-02-02T20:23:55.988Z,3.10
2023-02-02T20:26:27.278Z,3.42
2023-02-02T20:28:58.628Z,3.30
2023-02-02T20:31:36.735Z,3.33
2023-02-02T20:34:23.854Z,3.28
2023-02-02T20:36:55.119Z,3.42
2023-02-02T20:39:37.050Z,2.97
2023-02-02T20:42:07.752Z,3.00
2023-02-02T20:44:36.479Z,3.15
2023-02-02T20:47:08.976Z,2.92
2023-02-02T20:49:38.491Z,3.47
2023-02-02T20:52:10.964Z,3.17
2023-02-02T20:54:40.636Z,3.60
2023-02-02T20:57:10.052Z,3.00
2023-02-02T20:59:38.180Z,3.15
2023-02-02T21:02:06.821Z,3.20
2023-02-02T21:04:36.574Z,2.78
2023-02-02T21:07:04.555Z,3.40
2023-02-02T21:09:34.259Z,3.15
2023-02-02T21:12:02.461Z,3.30
2023-02-02T21:14:30.330Z,3.05
2023-02-02T21:17:12.858Z,3.22
2023-02-02T21:19:42.766Z,3.00
2023-02-02T21:22:10.977Z,3.17
2023-02-02T21:24:40.715Z,2.70
2023-02-02T21:27:09.202Z,2.88
2023-02-02T21:29:37.464Z,3.13
2023-02-02T21:32:06.284Z,3.17
2023-02-02T21:34:34.998Z,2.97
2023-02-02T21:37:02.844Z,2.90
2023-02-02T21:39:33.868Z,2.72
2023-02-02T21:42:13.892Z,2.95
2023-02-02T21:44:44.472Z,2.95
2023-02-02T21:47:26.589Z,2.80
2023-02-02T21:49:56.468Z,3.05
2023-02-02T21:52:25.579Z,3.13
2023-02-02T21:54:53.579Z,2.60
2023-02-02T21:57:26.207Z,3.00
2023-02-02T21:59:56.493Z,2.65
2023-02-02T22:02:39.951Z,2.67
2023-02-02T22:05:18.754Z,2.58
2023-02-02T22:07:48.720Z,3.00
2023-02-02T22:10:37.530Z,2.80
2023-02-02T22:13:16.798Z,2.53
2023-02-02T22:15:47.281Z,2.38
2023-02-02T22:18:18.043Z,2.75
2023-02-02T22:20:49.586Z,2.83
2023-02-02T22:23:19.202Z,2.50
2023-02-02T22:25:48.682Z,2.85
2023-02-02T22:28:22.738Z,2.53
2023-02-02T22:30:52.794Z,3.55
2023-02-02T22:33:23.301Z,2.72
2023-02-02T22:36:05.292Z,3.13
2023-02-02T22:38:33.214Z,2.78
2023-02-02T22:41:01.498Z,2.78
2023-02-02T22:43:31.050Z,2.42
2023-02-02T22:45:59.161Z,2.60
2023-02-02T22:48:27.148Z,2.67
2023-02-02T22:50:55.156Z,2.72
2023-02-02T22:53:23.876Z,2.67
2023-02-02T22:55:56.421Z,2.80
2023-02-02T22:58:28.145Z,2.60
2023-02-02T23:00:57.568Z,2.53
2023-02-02T23:03:25.766Z,2.35
2023-02-02T23:05:53.610Z,2.50
2023-02-02T23:08:21.566Z,2.40
2023-02-02T23:10:49.789Z,2.65
2023-02-02T23:13:17.985Z,2.35
2023-02-02T23:15:45.944Z,2.75
2023-02-02T23:18:15.164Z,2.15
2023-02-02T23:20:43.092Z,2.20
2023-02-02T23:23:11.061Z,2.20
2023-02-02T23:25:39.330Z,2.70
2023-02-02T23:28:09.465Z,2.40
2023-02-02T23:30:38.065Z,2.38
2023-02-02T23:33:06.108Z,2.13
2023-02-02T23:35:35.665Z,2.20
2023-02-02T23:38:03.755Z,2.33
2023-02-02T23:40:32.145Z,2.30
2023-02-02T23:43:00.443Z,2.30
2023-02-02T23:45:28.700Z,2.40
2023-02-02T23:47:56.742Z,2.38
2023-02-02T23:50:25.000Z,2.10
2023-02-02T23:52:54.520Z,2.30
2023-02-02T23:55:22.619Z,2.80
2023-02-02T23:57:50.508Z,2.30
